Terminal Aerodrome Forecast
Issued by NWS Twin Cities, MN

Home | Current Version | Previous Version | Graphics & Text | Print | Product List | Glossary On
Versions: 1 2 3 4 5 6 7 8 9 10 11 12 13 14 15 16 17 18 19 20 21
187
FTUS43 KMPX 241120
TAFEAU
TAF
KEAU 241120Z 2412/2512 10005KT P6SM SKC
      TEMPO 2412/2413 1SM BR SCT002
     FM241900 14006KT P6SM SKC
     FM250100 14003KT P6SM SCT250=

USA.gov is the U.S. government's official web portal to all federal, state and local government web resources and services.